sensor_id;sensor_type;location;lat;lon;timestamp;P1;durP1;ratioP1;P2;durP2;ratioP2
15055;SDS011;7626;42.674;23.284;2023-03-11T00:00:32;8.80;;;7.90;;
15055;SDS011;7626;42.674;23.284;2023-03-11T00:02:59;8.03;;;7.00;;
15055;SDS011;7626;42.674;23.284;2023-03-11T00:05:26;6.20;;;5.60;;
15055;SDS011;7626;42.674;23.284;2023-03-11T00:07:54;5.47;;;4.20;;
15055;SDS011;7626;42.674;23.284;2023-03-11T00:10:22;5.50;;;4.57;;
15055;SDS011;7626;42.674;23.284;2023-03-11T00:12:51;4.73;;;3.17;;
15055;SDS011;7626;42.674;23.284;2023-03-11T00:15:17;3.57;;;2.77;;
15055;SDS011;7626;42.674;23.284;2023-03-11T00:17:44;3.43;;;2.23;;
15055;SDS011;7626;42.674;23.284;2023-03-11T00:20:14;5.40;;;2.97;;
15055;SDS011;7626;42.674;23.284;2023-03-11T00:22:42;2.47;;;1.90;;
15055;SDS011;7626;42.674;23.284;2023-03-11T00:25:08;3.03;;;1.90;;
15055;SDS011;7626;42.674;23.284;2023-03-11T00:27:35;2.27;;;1.63;;
15055;SDS011;7626;42.674;23.284;2023-03-11T00:30:03;2.97;;;1.40;;
15055;SDS011;7626;42.674;23.284;2023-03-11T00:32:30;1.63;;;1.10;;
15055;SDS011;7626;42.674;23.284;2023-03-11T00:34:56;1.40;;;1.00;;
15055;SDS011;7626;42.674;23.284;2023-03-11T00:37:23;1.90;;;1.03;;
15055;SDS011;7626;42.674;23.284;2023-03-11T00:39:49;1.73;;;1.07;;
15055;SDS011;7626;42.674;23.284;2023-03-11T00:42:16;1.23;;;1.10;;
15055;SDS011;7626;42.674;23.284;2023-03-11T00:44:42;1.40;;;1.10;;
15055;SDS011;7626;42.674;23.284;2023-03-11T00:47:10;1.23;;;0.80;;
15055;SDS011;7626;42.674;23.284;2023-03-11T00:49:37;3.90;;;0.80;;
15055;SDS011;7626;42.674;23.284;2023-03-11T00:52:04;1.10;;;1.00;;
15055;SDS011;7626;42.674;23.284;2023-03-11T00:54:30;1.50;;;0.90;;
15055;SDS011;7626;42.674;23.284;2023-03-11T00:56:57;2.23;;;1.27;;
15055;SDS011;7626;42.674;23.284;2023-03-11T00:59:23;1.53;;;0.90;;
15055;SDS011;7626;42.674;23.284;2023-03-11T01:01:50;1.63;;;0.80;;
15055;SDS011;7626;42.674;23.284;2023-03-11T01:04:18;2.40;;;2.13;;
15055;SDS011;7626;42.674;23.284;2023-03-11T01:06:44;3.93;;;2.50;;
15055;SDS011;7626;42.674;23.284;2023-03-11T01:09:11;1.70;;;1.50;;
15055;SDS011;7626;42.674;23.284;2023-03-11T01:11:37;2.30;;;1.60;;
15055;SDS011;7626;42.674;23.284;2023-03-11T01:14:04;1.77;;;1.33;;
15055;SDS011;7626;42.674;23.284;2023-03-11T01:16:30;2.57;;;1.20;;
15055;SDS011;7626;42.674;23.284;2023-03-11T01:18:57;1.87;;;1.20;;
15055;SDS011;7626;42.674;23.284;2023-03-11T01:21:24;2.90;;;1.30;;
15055;SDS011;7626;42.674;23.284;2023-03-11T01:23:51;1.47;;;1.37;;
15055;SDS011;7626;42.674;23.284;2023-03-11T01:26:17;2.90;;;1.50;;
15055;SDS011;7626;42.674;23.284;2023-03-11T01:28:44;1.53;;;1.10;;
15055;SDS011;7626;42.674;23.284;2023-03-11T01:31:10;2.47;;;1.47;;
15055;SDS011;7626;42.674;23.284;2023-03-11T01:33:37;2.17;;;1.50;;
15055;SDS011;7626;42.674;23.284;2023-03-11T01:36:04;2.30;;;1.40;;
15055;SDS011;7626;42.674;23.284;2023-03-11T01:38:31;1.93;;;1.33;;
15055;SDS011;7626;42.674;23.284;2023-03-11T01:40:58;2.13;;;1.40;;
15055;SDS011;7626;42.674;23.284;2023-03-11T01:43:36;1.67;;;1.40;;
15055;SDS011;7626;42.674;23.284;2023-03-11T01:46:08;1.33;;;1.23;;
15055;SDS011;7626;42.674;23.284;2023-03-11T01:48:35;1.87;;;1.23;;
15055;SDS011;7626;42.674;23.284;2023-03-11T01:51:03;1.43;;;1.30;;
15055;SDS011;7626;42.674;23.284;2023-03-11T01:53:31;2.40;;;1.40;;
15055;SDS011;7626;42.674;23.284;2023-03-11T01:55:58;2.17;;;1.37;;
15055;SDS011;7626;42.674;23.284;2023-03-11T01:58:25;2.40;;;1.40;;
15055;SDS011;7626;42.674;23.284;2023-03-11T02:00:53;2.17;;;1.60;;
15055;SDS011;7626;42.674;23.284;2023-03-11T02:03:21;3.30;;;1.90;;
15055;SDS011;7626;42.674;23.284;2023-03-11T02:05:51;2.77;;;1.73;;
15055;SDS011;7626;42.674;23.284;2023-03-11T02:08:18;1.70;;;1.60;;
15055;SDS011;7626;42.674;23.284;2023-03-11T02:10:46;2.33;;;1.43;;
15055;SDS011;7626;42.674;23.284;2023-03-11T02:13:14;2.43;;;1.47;;
15055;SDS011;7626;42.674;23.284;2023-03-11T02:15:41;1.47;;;1.37;;
15055;SDS011;7626;42.674;23.284;2023-03-11T02:18:07;3.90;;;1.80;;
15055;SDS011;7626;42.674;23.284;2023-03-11T02:20:37;1.90;;;1.70;;
15055;SDS011;7626;42.674;23.284;2023-03-11T02:23:05;2.20;;;1.70;;
15055;SDS011;7626;42.674;23.284;2023-03-11T02:25:33;2.43;;;1.60;;
15055;SDS011;7626;42.674;23.284;2023-03-11T02:28:03;1.20;;;1.10;;
15055;SDS011;7626;42.674;23.284;2023-03-11T02:30:31;1.30;;;0.97;;
15055;SDS011;7626;42.674;23.284;2023-03-11T02:32:58;0.83;;;0.80;;
15055;SDS011;7626;42.674;23.284;2023-03-11T02:35:24;0.80;;;0.70;;
15055;SDS011;7626;42.674;23.284;2023-03-11T02:37:51;0.50;;;0.50;;
15055;SDS011;7626;42.674;23.284;2023-03-11T02:40:27;0.83;;;0.63;;
15055;SDS011;7626;42.674;23.284;2023-03-11T02:42:57;1.50;;;0.70;;
15055;SDS011;7626;42.674;23.284;2023-03-11T02:45:26;1.43;;;0.80;;
15055;SDS011;7626;42.674;23.284;2023-03-11T02:47:53;1.03;;;0.70;;
15055;SDS011;7626;42.674;23.284;2023-03-11T02:50:20;0.87;;;0.83;;
15055;SDS011;7626;42.674;23.284;2023-03-11T02:52:47;1.53;;;0.80;;
15055;SDS011;7626;42.674;23.284;2023-03-11T02:55:14;2.40;;;1.13;;
15055;SDS011;7626;42.674;23.284;2023-03-11T02:57:42;1.40;;;1.10;;
15055;SDS011;7626;42.674;23.284;2023-03-11T03:00:09;2.00;;;1.20;;
15055;SDS011;7626;42.674;23.284;2023-03-11T03:02:40;1.77;;;1.10;;
15055;SDS011;7626;42.674;23.284;2023-03-11T03:05:07;1.20;;;1.10;;
15055;SDS011;7626;42.674;23.284;2023-03-11T03:07:33;1.03;;;0.90;;
15055;SDS011;7626;42.674;23.284;2023-03-11T03:10:00;0.93;;;0.80;;
15055;SDS011;7626;42.674;23.284;2023-03-11T03:12:26;0.93;;;0.70;;
15055;SDS011;7626;42.674;23.284;2023-03-11T03:14:53;0.80;;;0.80;;
15055;SDS011;7626;42.674;23.284;2023-03-11T03:17:19;0.80;;;0.80;;
15055;SDS011;7626;42.674;23.284;2023-03-11T03:19:47;0.80;;;0.80;;
15055;SDS011;7626;42.674;23.284;2023-03-11T03:22:14;1.60;;;0.83;;
15055;SDS011;7626;42.674;23.284;2023-03-11T03:24:40;0.67;;;0.67;;
15055;SDS011;7626;42.674;23.284;2023-03-11T03:27:06;0.90;;;0.90;;
15055;SDS011;7626;42.674;23.284;2023-03-11T03:29:33;1.23;;;0.60;;
15055;SDS011;7626;42.674;23.284;2023-03-11T03:31:59;0.70;;;0.70;;
15055;SDS011;7626;42.674;23.284;2023-03-11T03:34:26;0.60;;;0.57;;
15055;SDS011;7626;42.674;23.284;2023-03-11T03:36:54;0.93;;;0.50;;
15055;SDS011;7626;42.674;23.284;2023-03-11T03:39:20;0.70;;;0.57;;
15055;SDS011;7626;42.674;23.284;2023-03-11T03:41:47;0.60;;;0.60;;
15055;SDS011;7626;42.674;23.284;2023-03-11T03:44:13;0.50;;;0.50;;
15055;SDS011;7626;42.674;23.284;2023-03-11T03:46:40;0.83;;;0.50;;
15055;SDS011;7626;42.674;23.284;2023-03-11T03:49:06;0.73;;;0.73;;
15055;SDS011;7626;42.674;23.284;2023-03-11T03:51:33;0.60;;;0.60;;
15055;SDS011;7626;42.674;23.284;2023-03-11T03:54:00;0.60;;;0.60;;
15055;SDS011;7626;42.674;23.284;2023-03-11T03:56:27;0.60;;;0.53;;
15055;SDS011;7626;42.674;23.284;2023-03-11T03:58:53;0.57;;;0.57;;
15055;SDS011;7626;42.674;23.284;2023-03-11T04:01:20;0.40;;;0.40;;
15055;SDS011;7626;42.674;23.284;2023-03-11T04:03:46;1.03;;;0.50;;
15055;SDS011;7626;42.674;23.284;2023-03-11T04:06:14;0.60;;;0.60;;
15055;SDS011;7626;42.674;23.284;2023-03-11T04:08:41;0.30;;;0.30;;
15055;SDS011;7626;42.674;23.284;2023-03-11T04:11:09;0.50;;;0.50;;
15055;SDS011;7626;42.674;23.284;2023-03-11T04:13:36;0.50;;;0.40;;
15055;SDS011;7626;42.674;23.284;2023-03-11T04:16:03;0.77;;;0.70;;
15055;SDS011;7626;42.674;23.284;2023-03-11T04:18:29;1.00;;;0.60;;
15055;SDS011;7626;42.674;23.284;2023-03-11T04:20:56;0.60;;;0.50;;
15055;SDS011;7626;42.674;23.284;2023-03-11T04:23:22;0.57;;;0.57;;
15055;SDS011;7626;42.674;23.284;2023-03-11T04:25:50;0.97;;;0.70;;
15055;SDS011;7626;42.674;23.284;2023-03-11T04:28:18;0.60;;;0.60;;
15055;SDS011;7626;42.674;23.284;2023-03-11T04:30:44;0.50;;;0.50;;
15055;SDS011;7626;42.674;23.284;2023-03-11T04:33:11;1.00;;;0.70;;
15055;SDS011;7626;42.674;23.284;2023-03-11T04:35:37;0.60;;;0.60;;
15055;SDS011;7626;42.674;23.284;2023-03-11T04:38:04;0.90;;;0.90;;
15055;SDS011;7626;42.674;23.284;2023-03-11T04:40:30;0.90;;;0.90;;
15055;SDS011;7626;42.674;23.284;2023-03-11T04:42:57;0.63;;;0.63;;
15055;SDS011;7626;42.674;23.284;2023-03-11T04:45:25;0.97;;;0.87;;
15055;SDS011;7626;42.674;23.284;2023-03-11T04:47:51;1.17;;;0.83;;
15055;SDS011;7626;42.674;23.284;2023-03-11T04:50:18;0.70;;;0.60;;
15055;SDS011;7626;42.674;23.284;2023-03-11T04:52:44;0.60;;;0.60;;
15055;SDS011;7626;42.674;23.284;2023-03-11T04:55:11;0.60;;;0.60;;
15055;SDS011;7626;42.674;23.284;2023-03-11T04:57:38;0.83;;;0.40;;
15055;SDS011;7626;42.674;23.284;2023-03-11T05:00:05;0.40;;;0.40;;
15055;SDS011;7626;42.674;23.284;2023-03-11T05:02:37;1.17;;;0.93;;
15055;SDS011;7626;42.674;23.284;2023-03-11T05:05:04;0.50;;;0.50;;
15055;SDS011;7626;42.674;23.284;2023-03-11T05:07:31;0.60;;;0.57;;
15055;SDS011;7626;42.674;23.284;2023-03-11T05:09:57;0.80;;;0.60;;
15055;SDS011;7626;42.674;23.284;2023-03-11T05:12:24;0.67;;;0.67;;
15055;SDS011;7626;42.674;23.284;2023-03-11T05:14:50;0.63;;;0.60;;
15055;SDS011;7626;42.674;23.284;2023-03-11T05:17:17;1.47;;;0.73;;
15055;SDS011;7626;42.674;23.284;2023-03-11T05:19:45;0.50;;;0.50;;
15055;SDS011;7626;42.674;23.284;2023-03-11T05:22:12;0.83;;;0.70;;
15055;SDS011;7626;42.674;23.284;2023-03-11T05:24:39;0.93;;;0.77;;
15055;SDS011;7626;42.674;23.284;2023-03-11T05:27:05;0.90;;;0.73;;
15055;SDS011;7626;42.674;23.284;2023-03-11T05:29:32;0.63;;;0.63;;
15055;SDS011;7626;42.674;23.284;2023-03-11T05:31:58;0.60;;;0.60;;
15055;SDS011;7626;42.674;23.284;2023-03-11T05:34:25;1.00;;;0.70;;
15055;SDS011;7626;42.674;23.284;2023-03-11T05:36:53;0.97;;;0.90;;
15055;SDS011;7626;42.674;23.284;2023-03-11T05:39:19;2.20;;;1.00;;
15055;SDS011;7626;42.674;23.284;2023-03-11T05:41:46;1.70;;;1.10;;
15055;SDS011;7626;42.674;23.284;2023-03-11T05:44:12;1.80;;;1.20;;
15055;SDS011;7626;42.674;23.284;2023-03-11T05:46:39;1.47;;;1.30;;
15055;SDS011;7626;42.674;23.284;2023-03-11T05:49:05;2.10;;;0.93;;
15055;SDS011;7626;42.674;23.284;2023-03-11T05:51:32;1.20;;;1.00;;
15055;SDS011;7626;42.674;23.284;2023-03-11T05:53:59;1.50;;;1.40;;
15055;SDS011;7626;42.674;23.284;2023-03-11T05:56:26;1.53;;;1.43;;
15055;SDS011;7626;42.674;23.284;2023-03-11T05:58:52;2.10;;;1.80;;
15055;SDS011;7626;42.674;23.284;2023-03-11T06:01:19;1.40;;;1.20;;
15055;SDS011;7626;42.674;23.284;2023-03-11T06:03:45;2.83;;;1.73;;
15055;SDS011;7626;42.674;23.284;2023-03-11T06:06:12;2.10;;;1.30;;
15055;SDS011;7626;42.674;23.284;2023-03-11T06:08:39;1.37;;;1.27;;
15055;SDS011;7626;42.674;23.284;2023-03-11T06:11:11;3.03;;;1.53;;
15055;SDS011;7626;42.674;23.284;2023-03-11T06:13:38;1.73;;;1.30;;
15055;SDS011;7626;42.674;23.284;2023-03-11T06:16:04;1.50;;;1.40;;
15055;SDS011;7626;42.674;23.284;2023-03-11T06:18:31;2.70;;;1.37;;
15055;SDS011;7626;42.674;23.284;2023-03-11T06:20:58;1.80;;;1.40;;
15055;SDS011;7626;42.674;23.284;2023-03-11T06:23:25;1.50;;;1.20;;
15055;SDS011;7626;42.674;23.284;2023-03-11T06:25:55;2.90;;;2.37;;
15055;SDS011;7626;42.674;23.284;2023-03-11T06:28:23;2.30;;;1.70;;
15055;SDS011;7626;42.674;23.284;2023-03-11T06:30:49;2.10;;;1.33;;
15055;SDS011;7626;42.674;23.284;2023-03-11T06:33:16;2.73;;;1.70;;
15055;SDS011;7626;42.674;23.284;2023-03-11T06:35:42;1.30;;;1.20;;
15055;SDS011;7626;42.674;23.284;2023-03-11T06:38:09;1.40;;;1.30;;
15055;SDS011;7626;42.674;23.284;2023-03-11T06:40:35;1.80;;;1.50;;
15055;SDS011;7626;42.674;23.284;2023-03-11T06:43:02;2.00;;;1.73;;
15055;SDS011;7626;42.674;23.284;2023-03-11T06:45:30;1.73;;;1.47;;
15055;SDS011;7626;42.674;23.284;2023-03-11T06:47:56;1.87;;;1.30;;
15055;SDS011;7626;42.674;23.284;2023-03-11T06:50:23;2.63;;;2.27;;
15055;SDS011;7626;42.674;23.284;2023-03-11T06:52:50;2.57;;;1.80;;
15055;SDS011;7626;42.674;23.284;2023-03-11T06:55:16;1.37;;;1.27;;
15055;SDS011;7626;42.674;23.284;2023-03-11T06:57:43;2.30;;;1.23;;
15055;SDS011;7626;42.674;23.284;2023-03-11T07:00:10;2.17;;;1.40;;
15055;SDS011;7626;42.674;23.284;2023-03-11T07:02:39;1.13;;;1.00;;
15055;SDS011;7626;42.674;23.284;2023-03-11T07:05:06;1.63;;;1.23;;
15055;SDS011;7626;42.674;23.284;2023-03-11T07:07:32;1.70;;;1.13;;
15055;SDS011;7626;42.674;23.284;2023-03-11T07:09:59;1.03;;;0.80;;
15055;SDS011;7626;42.674;23.284;2023-03-11T07:12:26;1.50;;;0.80;;
15055;SDS011;7626;42.674;23.284;2023-03-11T07:14:55;2.50;;;1.30;;
15055;SDS011;7626;42.674;23.284;2023-03-11T07:17:22;0.90;;;0.90;;
15055;SDS011;7626;42.674;23.284;2023-03-11T07:19:50;1.53;;;0.93;;
15055;SDS011;7626;42.674;23.284;2023-03-11T07:22:17;1.20;;;1.10;;
15055;SDS011;7626;42.674;23.284;2023-03-11T07:24:44;2.10;;;1.13;;
15055;SDS011;7626;42.674;23.284;2023-03-11T07:27:10;1.67;;;1.50;;
15055;SDS011;7626;42.674;23.284;2023-03-11T07:29:37;1.90;;;1.43;;
15055;SDS011;7626;42.674;23.284;2023-03-11T07:32:05;1.20;;;1.10;;
15055;SDS011;7626;42.674;23.284;2023-03-11T07:34:31;2.47;;;1.70;;
15055;SDS011;7626;42.674;23.284;2023-03-11T07:36:59;4.17;;;2.37;;
15055;SDS011;7626;42.674;23.284;2023-03-11T07:39:26;3.00;;;2.33;;
15055;SDS011;7626;42.674;23.284;2023-03-11T07:41:53;3.50;;;2.80;;
15055;SDS011;7626;42.674;23.284;2023-03-11T07:44:19;4.70;;;3.40;;
15055;SDS011;7626;42.674;23.284;2023-03-11T07:46:46;4.20;;;2.70;;
15055;SDS011;7626;42.674;23.284;2023-03-11T07:49:12;1.63;;;1.50;;
15055;SDS011;7626;42.674;23.284;2023-03-11T07:51:39;1.97;;;1.30;;
15055;SDS011;7626;42.674;23.284;2023-03-11T07:54:09;2.40;;;1.30;;
15055;SDS011;7626;42.674;23.284;2023-03-11T07:56:36;2.67;;;1.43;;
15055;SDS011;7626;42.674;23.284;2023-03-11T07:59:03;1.67;;;1.33;;
15055;SDS011;7626;42.674;23.284;2023-03-11T08:01:30;1.00;;;0.90;;
15055;SDS011;7626;42.674;23.284;2023-03-11T08:04:00;1.03;;;0.87;;
15055;SDS011;7626;42.674;23.284;2023-03-11T08:06:27;1.30;;;0.83;;
15055;SDS011;7626;42.674;23.284;2023-03-11T08:08:55;1.27;;;0.90;;
15055;SDS011;7626;42.674;23.284;2023-03-11T08:11:23;1.67;;;1.00;;
15055;SDS011;7626;42.674;23.284;2023-03-11T08:13:50;2.83;;;1.50;;
15055;SDS011;7626;42.674;23.284;2023-03-11T08:16:18;1.50;;;1.40;;
15055;SDS011;7626;42.674;23.284;2023-03-11T08:18:45;1.37;;;1.27;;
15055;SDS011;7626;42.674;23.284;2023-03-11T08:21:12;2.23;;;1.10;;
15055;SDS011;7626;42.674;23.284;2023-03-11T08:23:39;1.40;;;1.20;;
15055;SDS011;7626;42.674;23.284;2023-03-11T08:26:07;2.23;;;1.20;;
15055;SDS011;7626;42.674;23.284;2023-03-11T08:28:36;1.40;;;0.93;;
15055;SDS011;7626;42.674;23.284;2023-03-11T08:31:03;1.27;;;1.17;;
15055;SDS011;7626;42.674;23.284;2023-03-11T08:33:36;1.30;;;1.00;;
15055;SDS011;7626;42.674;23.284;2023-03-11T08:36:03;1.10;;;1.00;;
15055;SDS011;7626;42.674;23.284;2023-03-11T08:38:29;1.80;;;1.20;;
15055;SDS011;7626;42.674;23.284;2023-03-11T08:40:56;1.20;;;1.10;;
15055;SDS011;7626;42.674;23.284;2023-03-11T08:43:22;1.53;;;1.10;;
15055;SDS011;7626;42.674;23.284;2023-03-11T08:45:50;1.53;;;1.10;;
15055;SDS011;7626;42.674;23.284;2023-03-11T08:48:16;1.00;;;1.00;;
15055;SDS011;7626;42.674;23.284;2023-03-11T08:50:43;1.23;;;1.00;;
15055;SDS011;7626;42.674;23.284;2023-03-11T08:53:09;1.73;;;1.20;;
15055;SDS011;7626;42.674;23.284;2023-03-11T08:55:36;1.90;;;1.30;;
15055;SDS011;7626;42.674;23.284;2023-03-11T08:58:02;1.20;;;1.03;;
15055;SDS011;7626;42.674;23.284;2023-03-11T09:00:29;1.70;;;1.43;;
15055;SDS011;7626;42.674;23.284;2023-03-11T09:02:57;2.03;;;1.33;;
15055;SDS011;7626;42.674;23.284;2023-03-11T09:05:23;1.43;;;1.33;;
15055;SDS011;7626;42.674;23.284;2023-03-11T09:07:50;12.73;;;11.17;;
15055;SDS011;7626;42.674;23.284;2023-03-11T09:10:17;2.50;;;2.10;;
15055;SDS011;7626;42.674;23.284;2023-03-11T09:12:43;1.37;;;1.20;;
15055;SDS011;7626;42.674;23.284;2023-03-11T09:15:10;1.10;;;1.00;;
15055;SDS011;7626;42.674;23.284;2023-03-11T09:17:36;2.50;;;1.17;;
15055;SDS011;7626;42.674;23.284;2023-03-11T09:20:05;1.20;;;1.10;;
15055;SDS011;7626;42.674;23.284;2023-03-11T09:22:31;2.40;;;1.10;;
15055;SDS011;7626;42.674;23.284;2023-03-11T09:24:58;2.10;;;1.07;;
15055;SDS011;7626;42.674;23.284;2023-03-11T09:27:24;2.40;;;1.10;;
15055;SDS011;7626;42.674;23.284;2023-03-11T09:29:51;2.40;;;1.00;;
15055;SDS011;7626;42.674;23.284;2023-03-11T09:32:17;1.87;;;1.30;;
15055;SDS011;7626;42.674;23.284;2023-03-11T09:34:44;1.83;;;1.43;;
15055;SDS011;7626;42.674;23.284;2023-03-11T09:37:12;1.53;;;1.20;;
15055;SDS011;7626;42.674;23.284;2023-03-11T09:39:38;1.57;;;1.20;;
15055;SDS011;7626;42.674;23.284;2023-03-11T09:42:09;2.27;;;1.30;;
15055;SDS011;7626;42.674;23.284;2023-03-11T09:44:39;1.67;;;1.07;;
15055;SDS011;7626;42.674;23.284;2023-03-11T09:52:46;1.40;;;1.23;;
15055;SDS011;7626;42.674;23.284;2023-03-11T09:55:20;1.60;;;1.23;;
15055;SDS011;7626;42.674;23.284;2023-03-11T09:57:49;1.60;;;1.10;;
15055;SDS011;7626;42.674;23.284;2023-03-11T10:00:17;2.13;;;1.23;;
15055;SDS011;7626;42.674;23.284;2023-03-11T10:02:45;2.10;;;1.20;;
15055;SDS011;7626;42.674;23.284;2023-03-11T10:05:12;1.20;;;1.10;;
15055;SDS011;7626;42.674;23.284;2023-03-11T10:07:41;2.30;;;1.27;;
15055;SDS011;7626;42.674;23.284;2023-03-11T10:10:12;1.67;;;1.30;;
15055;SDS011;7626;42.674;23.284;2023-03-11T10:12:42;2.63;;;1.40;;
15055;SDS011;7626;42.674;23.284;2023-03-11T10:15:16;1.77;;;1.40;;
15055;SDS011;7626;42.674;23.284;2023-03-11T10:17:54;2.03;;;1.13;;
15055;SDS011;7626;42.674;23.284;2023-03-11T10:20:23;1.20;;;1.00;;
15055;SDS011;7626;42.674;23.284;2023-03-11T10:22:58;1.40;;;1.10;;
15055;SDS011;7626;42.674;23.284;2023-03-11T10:25:29;1.10;;;1.00;;
15055;SDS011;7626;42.674;23.284;2023-03-11T10:27:59;1.93;;;1.10;;
15055;SDS011;7626;42.674;23.284;2023-03-11T10:30:28;1.83;;;1.40;;
15055;SDS011;7626;42.674;23.284;2023-03-11T10:33:00;1.87;;;1.20;;
15055;SDS011;7626;42.674;23.284;2023-03-11T10:35:32;3.47;;;1.40;;
15055;SDS011;7626;42.674;23.284;2023-03-11T10:38:02;2.47;;;1.50;;
15055;SDS011;7626;42.674;23.284;2023-03-11T10:40:33;1.50;;;1.30;;
15055;SDS011;7626;42.674;23.284;2023-03-11T10:43:02;1.60;;;1.23;;
15055;SDS011;7626;42.674;23.284;2023-03-11T10:45:32;1.57;;;1.30;;
15055;SDS011;7626;42.674;23.284;2023-03-11T10:47:59;2.40;;;1.20;;
15055;SDS011;7626;42.674;23.284;2023-03-11T10:50:26;1.50;;;1.00;;
15055;SDS011;7626;42.674;23.284;2023-03-11T10:53:09;1.63;;;1.10;;
15055;SDS011;7626;42.674;23.284;2023-03-11T10:55:43;1.67;;;1.00;;
15055;SDS011;7626;42.674;23.284;2023-03-11T10:58:11;1.13;;;1.03;;
15055;SDS011;7626;42.674;23.284;2023-03-11T11:00:37;2.27;;;1.17;;
15055;SDS011;7626;42.674;23.284;2023-03-11T11:03:10;2.13;;;1.30;;
15055;SDS011;7626;42.674;23.284;2023-03-11T11:05:37;1.30;;;1.13;;
15055;SDS011;7626;42.674;23.284;2023-03-11T11:08:06;1.73;;;0.97;;
15055;SDS011;7626;42.674;23.284;2023-03-11T11:10:33;2.00;;;1.30;;
15055;SDS011;7626;42.674;23.284;2023-03-11T11:13:09;1.93;;;1.13;;
15055;SDS011;7626;42.674;23.284;2023-03-11T11:15:42;2.27;;;1.30;;
15055;SDS011;7626;42.674;23.284;2023-03-11T11:18:17;2.07;;;1.30;;
15055;SDS011;7626;42.674;23.284;2023-03-11T11:20:51;2.77;;;1.00;;
15055;SDS011;7626;42.674;23.284;2023-03-11T11:23:23;2.30;;;1.13;;
15055;SDS011;7626;42.674;23.284;2023-03-11T11:25:54;3.13;;;1.27;;
15055;SDS011;7626;42.674;23.284;2023-03-11T11:28:23;2.03;;;1.30;;
15055;SDS011;7626;42.674;23.284;2023-03-11T11:30:53;1.87;;;1.10;;
15055;SDS011;7626;42.674;23.284;2023-03-11T11:33:21;2.20;;;1.40;;
15055;SDS011;7626;42.674;23.284;2023-03-11T11:35:48;1.30;;;1.03;;
15055;SDS011;7626;42.674;23.284;2023-03-11T11:38:15;2.20;;;1.60;;
15055;SDS011;7626;42.674;23.284;2023-03-11T11:40:41;2.43;;;1.90;;
15055;SDS011;7626;42.674;23.284;2023-03-11T11:43:10;2.57;;;2.10;;
15055;SDS011;7626;42.674;23.284;2023-03-11T11:45:39;3.53;;;2.03;;
15055;SDS011;7626;42.674;23.284;2023-03-11T11:48:10;2.47;;;1.97;;
15055;SDS011;7626;42.674;23.284;2023-03-11T11:50:39;2.20;;;1.80;;
15055;SDS011;7626;42.674;23.284;2023-03-11T11:53:13;2.63;;;1.87;;
15055;SDS011;7626;42.674;23.284;2023-03-11T11:55:42;1.50;;;1.40;;
15055;SDS011;7626;42.674;23.284;2023-03-11T11:58:09;1.93;;;1.50;;
15055;SDS011;7626;42.674;23.284;2023-03-11T12:00:41;2.27;;;1.30;;
15055;SDS011;7626;42.674;23.284;2023-03-11T12:03:15;2.67;;;1.13;;
15055;SDS011;7626;42.674;23.284;2023-03-11T12:05:50;2.30;;;1.20;;
15055;SDS011;7626;42.674;23.284;2023-03-11T12:08:18;1.33;;;1.10;;
15055;SDS011;7626;42.674;23.284;2023-03-11T12:10:48;2.27;;;1.37;;
15055;SDS011;7626;42.674;23.284;2023-03-11T12:13:24;1.33;;;1.23;;
15055;SDS011;7626;42.674;23.284;2023-03-11T12:15:56;1.53;;;1.20;;
15055;SDS011;7626;42.674;23.284;2023-03-11T12:18:26;2.03;;;1.17;;
15055;SDS011;7626;42.674;23.284;2023-03-11T12:20:55;2.23;;;1.30;;
15055;SDS011;7626;42.674;23.284;2023-03-11T12:23:28;2.77;;;1.20;;
15055;SDS011;7626;42.674;23.284;2023-03-11T12:26:02;2.60;;;1.23;;
15055;SDS011;7626;42.674;23.284;2023-03-11T12:28:33;1.87;;;1.00;;
15055;SDS011;7626;42.674;23.284;2023-03-11T12:31:06;2.00;;;1.00;;
15055;SDS011;7626;42.674;23.284;2023-03-11T12:33:35;1.87;;;1.30;;
15055;SDS011;7626;42.674;23.284;2023-03-11T12:36:02;1.67;;;1.27;;
15055;SDS011;7626;42.674;23.284;2023-03-11T12:38:31;2.73;;;1.33;;
15055;SDS011;7626;42.674;23.284;2023-03-11T12:40:59;2.13;;;1.30;;
15055;SDS011;7626;42.674;23.284;2023-03-11T12:43:27;3.67;;;1.40;;
15055;SDS011;7626;42.674;23.284;2023-03-11T12:46:15;3.70;;;1.60;;
15055;SDS011;7626;42.674;23.284;2023-03-11T12:48:43;2.00;;;1.10;;
15055;SDS011;7626;42.674;23.284;2023-03-11T12:51:36;2.07;;;1.10;;
15055;SDS011;7626;42.674;23.284;2023-03-11T12:56:44;3.47;;;1.40;;
15055;SDS011;7626;42.674;23.284;2023-03-11T12:59:22;1.57;;;1.30;;
15055;SDS011;7626;42.674;23.284;2023-03-11T13:02:00;1.70;;;1.60;;
15055;SDS011;7626;42.674;23.284;2023-03-11T13:04:31;2.20;;;1.43;;
15055;SDS011;7626;42.674;23.284;2023-03-11T13:09:57;2.43;;;1.40;;
15055;SDS011;7626;42.674;23.284;2023-03-11T13:12:41;2.37;;;1.60;;
15055;SDS011;7626;42.674;23.284;2023-03-11T13:15:31;2.93;;;1.30;;
15055;SDS011;7626;42.674;23.284;2023-03-11T13:18:00;2.13;;;1.37;;
15055;SDS011;7626;42.674;23.284;2023-03-11T13:20:38;1.90;;;1.50;;
15055;SDS011;7626;42.674;23.284;2023-03-11T13:23:08;2.40;;;1.47;;
15055;SDS011;7626;42.674;23.284;2023-03-11T13:25:36;2.97;;;1.80;;
15055;SDS011;7626;42.674;23.284;2023-03-11T13:28:17;2.27;;;1.53;;
15055;SDS011;7626;42.674;23.284;2023-03-11T13:30:46;1.80;;;1.20;;
15055;SDS011;7626;42.674;23.284;2023-03-11T13:33:22;1.30;;;1.10;;
15055;SDS011;7626;42.674;23.284;2023-03-11T13:35:58;2.20;;;1.20;;
15055;SDS011;7626;42.674;23.284;2023-03-11T13:41:14;2.53;;;1.37;;
15055;SDS011;7626;42.674;23.284;2023-03-11T13:43:44;1.80;;;1.30;;
15055;SDS011;7626;42.674;23.284;2023-03-11T13:46:13;1.90;;;1.23;;
15055;SDS011;7626;42.674;23.284;2023-03-11T13:51:26;2.30;;;1.43;;
15055;SDS011;7626;42.674;23.284;2023-03-11T13:53:55;1.50;;;1.10;;
15055;SDS011;7626;42.674;23.284;2023-03-11T13:56:23;1.37;;;0.83;;
15055;SDS011;7626;42.674;23.284;2023-03-11T13:58:51;1.93;;;1.17;;
15055;SDS011;7626;42.674;23.284;2023-03-11T14:01:17;1.97;;;1.20;;
15055;SDS011;7626;42.674;23.284;2023-03-11T14:03:45;2.07;;;1.10;;
15055;SDS011;7626;42.674;23.284;2023-03-11T14:06:12;1.63;;;1.20;;
15055;SDS011;7626;42.674;23.284;2023-03-11T14:08:41;2.13;;;1.40;;
15055;SDS011;7626;42.674;23.284;2023-03-11T14:11:14;1.77;;;1.30;;
15055;SDS011;7626;42.674;23.284;2023-03-11T14:13:41;2.47;;;1.47;;
15055;SDS011;7626;42.674;23.284;2023-03-11T14:16:08;2.70;;;1.77;;
15055;SDS011;7626;42.674;23.284;2023-03-11T14:18:36;2.80;;;2.30;;
15055;SDS011;7626;42.674;23.284;2023-03-11T14:21:04;5.00;;;4.50;;
15055;SDS011;7626;42.674;23.284;2023-03-11T14:23:32;7.30;;;6.03;;
15055;SDS011;7626;42.674;23.284;2023-03-11T14:26:02;4.87;;;4.17;;
15055;SDS011;7626;42.674;23.284;2023-03-11T14:28:32;4.17;;;3.60;;
15055;SDS011;7626;42.674;23.284;2023-03-11T14:30:59;4.07;;;3.67;;
15055;SDS011;7626;42.674;23.284;2023-03-11T14:33:26;4.13;;;3.10;;
15055;SDS011;7626;42.674;23.284;2023-03-11T14:35:53;3.10;;;2.80;;
15055;SDS011;7626;42.674;23.284;2023-03-11T14:38:20;2.90;;;2.23;;
15055;SDS011;7626;42.674;23.284;2023-03-11T14:40:48;3.33;;;2.30;;
15055;SDS011;7626;42.674;23.284;2023-03-11T14:43:17;2.63;;;2.20;;
15055;SDS011;7626;42.674;23.284;2023-03-11T14:45:45;2.53;;;2.10;;
15055;SDS011;7626;42.674;23.284;2023-03-11T14:48:13;2.13;;;1.93;;
15055;SDS011;7626;42.674;23.284;2023-03-11T14:50:42;2.47;;;2.10;;
15055;SDS011;7626;42.674;23.284;2023-03-11T14:53:14;2.63;;;1.67;;
15055;SDS011;7626;42.674;23.284;2023-03-11T14:55:43;2.03;;;1.83;;
15055;SDS011;7626;42.674;23.284;2023-03-11T14:58:15;3.13;;;1.83;;
15055;SDS011;7626;42.674;23.284;2023-03-11T15:00:47;2.70;;;2.00;;
15055;SDS011;7626;42.674;23.284;2023-03-11T15:03:17;3.17;;;2.23;;
15055;SDS011;7626;42.674;23.284;2023-03-11T15:05:46;4.57;;;2.27;;
15055;SDS011;7626;42.674;23.284;2023-03-11T15:08:15;3.10;;;2.30;;
15055;SDS011;7626;42.674;23.284;2023-03-11T15:13:23;3.23;;;2.43;;